sensor_id;sensor_type;location;lat;lon;timestamp;P1;durP1;ratioP1;P2;durP2;ratioP2
20972;SDS011;10645;52.370;13.314;2023-03-19T00:02:18;2.97;;;2.75;;
20972;SDS011;10645;52.370;13.314;2023-03-19T00:04:45;2.80;;;2.60;;
20972;SDS011;10645;52.370;13.314;2023-03-19T00:07:12;2.63;;;2.17;;
20972;SDS011;10645;52.370;13.314;2023-03-19T00:09:38;3.55;;;2.70;;
20972;SDS011;10645;52.370;13.314;2023-03-19T00:12:04;8.32;;;2.83;;
20972;SDS011;10645;52.370;13.314;2023-03-19T00:14:31;1.00;;;1.00;;
20972;SDS011;10645;52.370;13.314;2023-03-19T00:16:57;4.40;;;2.45;;
20972;SDS011;10645;52.370;13.314;2023-03-19T00:19:23;2.38;;;1.40;;
20972;SDS011;10645;52.370;13.314;2023-03-19T00:21:49;3.92;;;3.05;;
20972;SDS011;10645;52.370;13.314;2023-03-19T00:24:16;4.23;;;3.47;;
20972;SDS011;10645;52.370;13.314;2023-03-19T00:26:43;3.65;;;2.78;;
20972;SDS011;10645;52.370;13.314;2023-03-19T00:29:09;5.50;;;2.85;;
20972;SDS011;10645;52.370;13.314;2023-03-19T00:31:35;3.83;;;2.27;;
20972;SDS011;10645;52.370;13.314;2023-03-19T00:34:01;2.77;;;2.57;;
20972;SDS011;10645;52.370;13.314;2023-03-19T00:36:27;2.67;;;2.10;;
20972;SDS011;10645;52.370;13.314;2023-03-19T00:38:56;2.93;;;2.47;;
20972;SDS011;10645;52.370;13.314;2023-03-19T00:41:22;2.87;;;2.60;;
20972;SDS011;10645;52.370;13.314;2023-03-19T00:43:51;3.40;;;2.70;;
20972;SDS011;10645;52.370;13.314;2023-03-19T00:46:18;4.03;;;3.43;;
20972;SDS011;10645;52.370;13.314;2023-03-19T00:48:45;4.38;;;3.97;;
20972;SDS011;10645;52.370;13.314;2023-03-19T00:51:11;2.07;;;1.97;;
20972;SDS011;10645;52.370;13.314;2023-03-19T00:53:38;2.80;;;2.37;;
20972;SDS011;10645;52.370;13.314;2023-03-19T00:56:06;6.90;;;4.50;;
20972;SDS011;10645;52.370;13.314;2023-03-19T00:58:34;3.10;;;2.57;;
20972;SDS011;10645;52.370;13.314;2023-03-19T01:01:00;2.67;;;1.80;;
20972;SDS011;10645;52.370;13.314;2023-03-19T01:03:26;3.40;;;3.10;;
20972;SDS011;10645;52.370;13.314;2023-03-19T01:05:53;5.03;;;3.23;;
20972;SDS011;10645;52.370;13.314;2023-03-19T01:08:19;3.60;;;2.67;;
20972;SDS011;10645;52.370;13.314;2023-03-19T01:10:45;2.57;;;2.17;;
20972;SDS011;10645;52.370;13.314;2023-03-19T01:13:11;2.60;;;2.40;;
20972;SDS011;10645;52.370;13.314;2023-03-19T01:15:38;2.57;;;2.37;;
20972;SDS011;10645;52.370;13.314;2023-03-19T01:18:06;3.77;;;3.20;;
20972;SDS011;10645;52.370;13.314;2023-03-19T01:20:33;4.37;;;3.03;;
20972;SDS011;10645;52.370;13.314;2023-03-19T01:23:00;4.73;;;4.13;;
20972;SDS011;10645;52.370;13.314;2023-03-19T01:25:26;4.43;;;3.47;;
20972;SDS011;10645;52.370;13.314;2023-03-19T01:28:00;3.00;;;2.77;;
20972;SDS011;10645;52.370;13.314;2023-03-19T01:30:26;2.80;;;2.13;;
20972;SDS011;10645;52.370;13.314;2023-03-19T01:33:10;3.53;;;2.37;;
20972;SDS011;10645;52.370;13.314;2023-03-19T01:35:45;6.57;;;3.70;;
20972;SDS011;10645;52.370;13.314;2023-03-19T01:38:16;3.20;;;3.00;;
20972;SDS011;10645;52.370;13.314;2023-03-19T01:40:44;2.30;;;2.10;;
20972;SDS011;10645;52.370;13.314;2023-03-19T01:43:13;3.77;;;2.90;;
20972;SDS011;10645;52.370;13.314;2023-03-19T01:45:57;3.10;;;2.20;;
20972;SDS011;10645;52.370;13.314;2023-03-19T01:48:47;3.83;;;3.10;;
20972;SDS011;10645;52.370;13.314;2023-03-19T01:51:19;7.83;;;3.33;;
20972;SDS011;10645;52.370;13.314;2023-03-19T01:54:09;7.97;;;2.73;;
20972;SDS011;10645;52.370;13.314;2023-03-19T01:56:52;3.80;;;2.63;;
20972;SDS011;10645;52.370;13.314;2023-03-19T01:59:51;2.60;;;2.40;;
20972;SDS011;10645;52.370;13.314;2023-03-19T02:02:37;2.43;;;2.23;;
20972;SDS011;10645;52.370;13.314;2023-03-19T02:05:16;2.50;;;2.30;;
20972;SDS011;10645;52.370;13.314;2023-03-19T02:07:51;6.43;;;2.87;;
20972;SDS011;10645;52.370;13.314;2023-03-19T02:10:19;2.40;;;2.20;;
20972;SDS011;10645;52.370;13.314;2023-03-19T02:12:47;4.20;;;3.87;;
20972;SDS011;10645;52.370;13.314;2023-03-19T02:15:13;4.20;;;3.67;;
20972;SDS011;10645;52.370;13.314;2023-03-19T02:17:40;4.57;;;3.93;;
20972;SDS011;10645;52.370;13.314;2023-03-19T02:20:17;4.27;;;3.30;;
20972;SDS011;10645;52.370;13.314;2023-03-19T02:22:56;2.87;;;2.43;;
20972;SDS011;10645;52.370;13.314;2023-03-19T02:28:15;2.80;;;2.60;;
20972;SDS011;10645;52.370;13.314;2023-03-19T02:30:43;4.23;;;3.40;;
20972;SDS011;10645;52.370;13.314;2023-03-19T02:33:11;3.77;;;3.47;;
20972;SDS011;10645;52.370;13.314;2023-03-19T02:35:38;2.80;;;2.60;;
20972;SDS011;10645;52.370;13.314;2023-03-19T02:38:06;4.37;;;3.97;;
20972;SDS011;10645;52.370;13.314;2023-03-19T02:40:33;4.97;;;4.55;;
20972;SDS011;10645;52.370;13.314;2023-03-19T02:43:02;3.95;;;2.83;;
20972;SDS011;10645;52.370;13.314;2023-03-19T02:45:29;3.47;;;3.05;;
20972;SDS011;10645;52.370;13.314;2023-03-19T02:47:56;4.45;;;4.00;;
20972;SDS011;10645;52.370;13.314;2023-03-19T02:50:23;7.03;;;3.30;;
20972;SDS011;10645;52.370;13.314;2023-03-19T02:52:49;3.67;;;2.73;;
20972;SDS011;10645;52.370;13.314;2023-03-19T02:55:15;7.53;;;3.05;;
20972;SDS011;10645;52.370;13.314;2023-03-19T02:57:43;3.28;;;1.98;;
20972;SDS011;10645;52.370;13.314;2023-03-19T03:00:10;3.15;;;2.95;;
20972;SDS011;10645;52.370;13.314;2023-03-19T03:02:37;2.92;;;2.30;;
20972;SDS011;10645;52.370;13.314;2023-03-19T03:05:04;2.90;;;2.53;;
20972;SDS011;10645;52.370;13.314;2023-03-19T03:07:31;5.55;;;5.07;;
20972;SDS011;10645;52.370;13.314;2023-03-19T03:09:57;4.88;;;2.33;;
20972;SDS011;10645;52.370;13.314;2023-03-19T03:12:24;7.90;;;3.50;;
20972;SDS011;10645;52.370;13.314;2023-03-19T03:14:50;3.75;;;3.47;;
20972;SDS011;10645;52.370;13.314;2023-03-19T03:17:17;3.90;;;3.60;;
20972;SDS011;10645;52.370;13.314;2023-03-19T03:19:43;5.93;;;3.78;;
20972;SDS011;10645;52.370;13.314;2023-03-19T03:22:09;5.50;;;3.92;;
20972;SDS011;10645;52.370;13.314;2023-03-19T03:24:36;2.83;;;2.58;;
20972;SDS011;10645;52.370;13.314;2023-03-19T03:27:03;10.32;;;4.97;;
20972;SDS011;10645;52.370;13.314;2023-03-19T03:29:29;3.60;;;2.78;;
20972;SDS011;10645;52.370;13.314;2023-03-19T03:31:56;3.78;;;3.17;;
20972;SDS011;10645;52.370;13.314;2023-03-19T03:34:22;4.53;;;3.28;;
20972;SDS011;10645;52.370;13.314;2023-03-19T03:36:48;2.40;;;2.27;;
20972;SDS011;10645;52.370;13.314;2023-03-19T03:39:14;7.90;;;3.22;;
20972;SDS011;10645;52.370;13.314;2023-03-19T03:41:40;3.53;;;3.13;;
20972;SDS011;10645;52.370;13.314;2023-03-19T03:44:07;5.07;;;4.60;;
20972;SDS011;10645;52.370;13.314;2023-03-19T03:46:35;4.78;;;3.55;;
20972;SDS011;10645;52.370;13.314;2023-03-19T03:49:01;9.85;;;5.55;;
20972;SDS011;10645;52.370;13.314;2023-03-19T03:51:27;4.00;;;3.70;;
20972;SDS011;10645;52.370;13.314;2023-03-19T03:53:53;8.07;;;3.58;;
20972;SDS011;10645;52.370;13.314;2023-03-19T03:56:20;3.35;;;2.78;;
20972;SDS011;10645;52.370;13.314;2023-03-19T03:58:46;6.97;;;3.72;;
20972;SDS011;10645;52.370;13.314;2023-03-19T04:01:13;5.40;;;3.30;;
20972;SDS011;10645;52.370;13.314;2023-03-19T04:03:41;5.40;;;3.83;;
20972;SDS011;10645;52.370;13.314;2023-03-19T04:06:08;5.63;;;3.13;;
20972;SDS011;10645;52.370;13.314;2023-03-19T04:08:39;4.32;;;3.92;;
20972;SDS011;10645;52.370;13.314;2023-03-19T04:11:06;2.55;;;2.17;;
20972;SDS011;10645;52.370;13.314;2023-03-19T04:13:32;2.47;;;2.33;;
20972;SDS011;10645;52.370;13.314;2023-03-19T04:16:02;4.88;;;2.13;;
20972;SDS011;10645;52.370;13.314;2023-03-19T04:18:29;4.90;;;4.45;;
20972;SDS011;10645;52.370;13.314;2023-03-19T04:20:56;6.25;;;3.40;;
20972;SDS011;10645;52.370;13.314;2023-03-19T04:23:22;4.68;;;4.28;;
20972;SDS011;10645;52.370;13.314;2023-03-19T04:25:49;1.88;;;1.75;;
20972;SDS011;10645;52.370;13.314;2023-03-19T04:28:16;4.93;;;3.30;;
20972;SDS011;10645;52.370;13.314;2023-03-19T04:30:42;3.92;;;3.63;;
20972;SDS011;10645;52.370;13.314;2023-03-19T04:33:09;4.28;;;2.88;;
20972;SDS011;10645;52.370;13.314;2023-03-19T04:35:36;2.78;;;1.88;;
20972;SDS011;10645;52.370;13.314;2023-03-19T04:38:02;4.57;;;4.18;;
20972;SDS011;10645;52.370;13.314;2023-03-19T04:40:29;3.97;;;2.85;;
20972;SDS011;10645;52.370;13.314;2023-03-19T04:42:55;3.30;;;3.17;;
20972;SDS011;10645;52.370;13.314;2023-03-19T04:45:28;2.65;;;2.42;;
20972;SDS011;10645;52.370;13.314;2023-03-19T04:47:55;3.90;;;3.60;;
20972;SDS011;10645;52.370;13.314;2023-03-19T04:50:21;5.07;;;4.05;;
20972;SDS011;10645;52.370;13.314;2023-03-19T04:52:47;5.70;;;5.07;;
20972;SDS011;10645;52.370;13.314;2023-03-19T04:55:14;4.45;;;3.45;;
20972;SDS011;10645;52.370;13.314;2023-03-19T04:58:02;3.95;;;3.00;;
20972;SDS011;10645;52.370;13.314;2023-03-19T05:00:31;5.10;;;2.80;;
20972;SDS011;10645;52.370;13.314;2023-03-19T05:02:58;3.20;;;2.38;;
20972;SDS011;10645;52.370;13.314;2023-03-19T05:05:24;5.68;;;2.80;;
20972;SDS011;10645;52.370;13.314;2023-03-19T05:07:50;5.70;;;4.63;;
20972;SDS011;10645;52.370;13.314;2023-03-19T05:10:16;4.40;;;4.00;;
20972;SDS011;10645;52.370;13.314;2023-03-19T05:12:42;3.15;;;2.95;;
20972;SDS011;10645;52.370;13.314;2023-03-19T05:15:09;7.90;;;4.90;;
20972;SDS011;10645;52.370;13.314;2023-03-19T05:17:40;2.70;;;2.50;;
20972;SDS011;10645;52.370;13.314;2023-03-19T05:20:20;5.10;;;4.55;;
20972;SDS011;10645;52.370;13.314;2023-03-19T05:23:01;6.13;;;3.83;;
20972;SDS011;10645;52.370;13.314;2023-03-19T05:25:56;5.45;;;3.47;;
20972;SDS011;10645;52.370;13.314;2023-03-19T05:28:44;3.55;;;2.88;;
20972;SDS011;10645;52.370;13.314;2023-03-19T05:31:11;4.35;;;3.95;;
20972;SDS011;10645;52.370;13.314;2023-03-19T05:33:44;4.07;;;3.42;;
20972;SDS011;10645;52.370;13.314;2023-03-19T05:36:10;3.38;;;2.85;;
20972;SDS011;10645;52.370;13.314;2023-03-19T05:38:50;5.38;;;3.45;;
20972;SDS011;10645;52.370;13.314;2023-03-19T05:41:23;2.60;;;2.45;;
20972;SDS011;10645;52.370;13.314;2023-03-19T05:43:56;9.82;;;4.90;;
20972;SDS011;10645;52.370;13.314;2023-03-19T05:46:43;7.65;;;4.40;;
20972;SDS011;10645;52.370;13.314;2023-03-19T05:49:10;6.00;;;5.00;;
20972;SDS011;10645;52.370;13.314;2023-03-19T05:51:36;5.32;;;4.13;;
20972;SDS011;10645;52.370;13.314;2023-03-19T05:54:02;4.18;;;3.88;;
20972;SDS011;10645;52.370;13.314;2023-03-19T05:56:32;6.55;;;5.13;;
20972;SDS011;10645;52.370;13.314;2023-03-19T05:59:25;5.30;;;3.75;;
20972;SDS011;10645;52.370;13.314;2023-03-19T06:02:04;8.50;;;5.82;;
20972;SDS011;10645;52.370;13.314;2023-03-19T06:04:31;11.60;;;4.15;;
20972;SDS011;10645;52.370;13.314;2023-03-19T06:06:57;7.30;;;4.50;;
20972;SDS011;10645;52.370;13.314;2023-03-19T06:09:23;3.83;;;3.53;;
20972;SDS011;10645;52.370;13.314;2023-03-19T06:11:53;4.93;;;3.78;;
20972;SDS011;10645;52.370;13.314;2023-03-19T06:14:40;7.63;;;4.10;;
20972;SDS011;10645;52.370;13.314;2023-03-19T06:17:38;3.28;;;2.72;;
20972;SDS011;10645;52.370;13.314;2023-03-19T06:20:07;3.95;;;3.22;;
20972;SDS011;10645;52.370;13.314;2023-03-19T06:22:35;6.22;;;5.45;;
20972;SDS011;10645;52.370;13.314;2023-03-19T06:25:02;5.93;;;4.32;;
20972;SDS011;10645;52.370;13.314;2023-03-19T06:27:30;4.40;;;3.20;;
20972;SDS011;10645;52.370;13.314;2023-03-19T06:30:07;5.80;;;4.93;;
20972;SDS011;10645;52.370;13.314;2023-03-19T06:32:34;4.90;;;4.50;;
20972;SDS011;10645;52.370;13.314;2023-03-19T06:35:06;4.47;;;3.75;;
20972;SDS011;10645;52.370;13.314;2023-03-19T06:37:33;10.60;;;4.32;;
20972;SDS011;10645;52.370;13.314;2023-03-19T06:39:59;4.95;;;4.53;;
20972;SDS011;10645;52.370;13.314;2023-03-19T06:42:25;4.05;;;3.65;;
20972;SDS011;10645;52.370;13.314;2023-03-19T06:44:52;6.65;;;5.57;;
20972;SDS011;10645;52.370;13.314;2023-03-19T06:47:18;6.32;;;5.28;;
20972;SDS011;10645;52.370;13.314;2023-03-19T06:49:44;6.15;;;4.45;;
20972;SDS011;10645;52.370;13.314;2023-03-19T06:52:10;6.85;;;3.65;;
20972;SDS011;10645;52.370;13.314;2023-03-19T06:54:36;4.97;;;4.45;;
20972;SDS011;10645;52.370;13.314;2023-03-19T06:57:03;4.57;;;4.20;;
20972;SDS011;10645;52.370;13.314;2023-03-19T06:59:29;7.85;;;4.78;;
20972;SDS011;10645;52.370;13.314;2023-03-19T07:01:55;4.88;;;4.45;;
20972;SDS011;10645;52.370;13.314;2023-03-19T07:04:21;6.72;;;5.43;;
20972;SDS011;10645;52.370;13.314;2023-03-19T07:06:47;7.00;;;4.43;;
20972;SDS011;10645;52.370;13.314;2023-03-19T07:09:13;6.38;;;4.05;;
20972;SDS011;10645;52.370;13.314;2023-03-19T07:11:39;8.95;;;6.22;;
20972;SDS011;10645;52.370;13.314;2023-03-19T07:14:05;4.95;;;3.85;;
20972;SDS011;10645;52.370;13.314;2023-03-19T07:16:32;7.65;;;4.47;;
20972;SDS011;10645;52.370;13.314;2023-03-19T07:18:58;4.85;;;4.45;;
20972;SDS011;10645;52.370;13.314;2023-03-19T07:21:24;6.40;;;5.65;;
20972;SDS011;10645;52.370;13.314;2023-03-19T07:23:50;2.92;;;2.65;;
20972;SDS011;10645;52.370;13.314;2023-03-19T07:26:16;8.38;;;5.35;;
20972;SDS011;10645;52.370;13.314;2023-03-19T07:28:43;8.48;;;5.22;;
20972;SDS011;10645;52.370;13.314;2023-03-19T07:31:09;7.15;;;4.75;;
20972;SDS011;10645;52.370;13.314;2023-03-19T07:33:35;7.85;;;5.78;;
20972;SDS011;10645;52.370;13.314;2023-03-19T07:36:01;4.07;;;3.78;;
20972;SDS011;10645;52.370;13.314;2023-03-19T07:38:27;11.88;;;7.70;;
20972;SDS011;10645;52.370;13.314;2023-03-19T07:40:53;9.68;;;8.40;;
20972;SDS011;10645;52.370;13.314;2023-03-19T07:43:19;23.15;;;16.48;;
20972;SDS011;10645;52.370;13.314;2023-03-19T07:45:45;11.57;;;8.10;;
20972;SDS011;10645;52.370;13.314;2023-03-19T07:48:11;34.28;;;19.10;;
20972;SDS011;10645;52.370;13.314;2023-03-19T07:50:38;27.55;;;21.13;;
20972;SDS011;10645;52.370;13.314;2023-03-19T07:53:04;14.98;;;11.07;;
20972;SDS011;10645;52.370;13.314;2023-03-19T07:55:30;6.10;;;3.83;;
20972;SDS011;10645;52.370;13.314;2023-03-19T07:57:56;5.55;;;5.07;;
20972;SDS011;10645;52.370;13.314;2023-03-19T08:00:22;5.70;;;4.60;;
20972;SDS011;10645;52.370;13.314;2023-03-19T08:02:49;4.95;;;4.47;;
20972;SDS011;10645;52.370;13.314;2023-03-19T08:05:15;10.13;;;5.07;;
20972;SDS011;10645;52.370;13.314;2023-03-19T08:07:41;5.80;;;5.30;;
20972;SDS011;10645;52.370;13.314;2023-03-19T08:10:07;5.28;;;4.78;;
20972;SDS011;10645;52.370;13.314;2023-03-19T08:12:34;8.27;;;3.42;;
20972;SDS011;10645;52.370;13.314;2023-03-19T08:15:06;6.05;;;5.05;;
20972;SDS011;10645;52.370;13.314;2023-03-19T08:17:33;4.35;;;3.95;;
20972;SDS011;10645;52.370;13.314;2023-03-19T08:20:03;8.70;;;5.93;;
20972;SDS011;10645;52.370;13.314;2023-03-19T08:22:31;6.57;;;4.68;;
20972;SDS011;10645;52.370;13.314;2023-03-19T08:24:57;7.15;;;5.57;;
20972;SDS011;10645;52.370;13.314;2023-03-19T08:27:23;8.27;;;4.63;;
20972;SDS011;10645;52.370;13.314;2023-03-19T08:29:49;5.22;;;4.28;;
20972;SDS011;10645;52.370;13.314;2023-03-19T08:32:15;5.82;;;5.32;;
20972;SDS011;10645;52.370;13.314;2023-03-19T08:34:41;4.75;;;4.40;;
20972;SDS011;10645;52.370;13.314;2023-03-19T08:37:07;7.68;;;4.85;;
20972;SDS011;10645;52.370;13.314;2023-03-19T08:39:33;5.82;;;4.80;;
20972;SDS011;10645;52.370;13.314;2023-03-19T08:41:59;3.88;;;3.58;;
20972;SDS011;10645;52.370;13.314;2023-03-19T08:44:25;8.88;;;5.65;;
20972;SDS011;10645;52.370;13.314;2023-03-19T08:46:51;14.85;;;12.88;;
20972;SDS011;10645;52.370;13.314;2023-03-19T08:49:17;9.25;;;6.93;;
20972;SDS011;10645;52.370;13.314;2023-03-19T08:51:44;5.50;;;3.97;;
20972;SDS011;10645;52.370;13.314;2023-03-19T08:54:10;10.25;;;4.72;;
20972;SDS011;10645;52.370;13.314;2023-03-19T08:56:38;3.45;;;2.53;;
20972;SDS011;10645;52.370;13.314;2023-03-19T08:59:04;18.77;;;6.25;;
20972;SDS011;10645;52.370;13.314;2023-03-19T09:01:31;4.65;;;3.90;;
20972;SDS011;10645;52.370;13.314;2023-03-19T09:03:57;5.10;;;4.55;;
20972;SDS011;10645;52.370;13.314;2023-03-19T09:06:23;6.60;;;4.45;;
20972;SDS011;10645;52.370;13.314;2023-03-19T09:08:49;5.68;;;5.13;;
20972;SDS011;10645;52.370;13.314;2023-03-19T09:11:15;5.50;;;4.57;;
20972;SDS011;10645;52.370;13.314;2023-03-19T09:13:42;10.70;;;4.82;;
20972;SDS011;10645;52.370;13.314;2023-03-19T09:16:08;6.97;;;5.65;;
20972;SDS011;10645;52.370;13.314;2023-03-19T09:18:35;4.85;;;3.83;;
20972;SDS011;10645;52.370;13.314;2023-03-19T09:21:01;3.10;;;2.80;;
20972;SDS011;10645;52.370;13.314;2023-03-19T09:23:28;5.93;;;4.18;;
20972;SDS011;10645;52.370;13.314;2023-03-19T09:25:54;5.38;;;4.75;;
20972;SDS011;10645;52.370;13.314;2023-03-19T09:28:20;5.15;;;4.60;;
20972;SDS011;10645;52.370;13.314;2023-03-19T09:30:46;6.90;;;4.60;;
20972;SDS011;10645;52.370;13.314;2023-03-19T09:33:14;3.83;;;3.53;;
20972;SDS011;10645;52.370;13.314;2023-03-19T09:35:41;7.95;;;4.22;;
20972;SDS011;10645;52.370;13.314;2023-03-19T09:38:07;4.20;;;3.80;;
20972;SDS011;10645;52.370;13.314;2023-03-19T09:40:43;6.43;;;4.93;;
20972;SDS011;10645;52.370;13.314;2023-03-19T09:46:17;3.65;;;3.35;;
20972;SDS011;10645;52.370;13.314;2023-03-19T09:48:59;3.92;;;3.50;;
20972;SDS011;10645;52.370;13.314;2023-03-19T09:51:52;4.55;;;4.25;;
20972;SDS011;10645;52.370;13.314;2023-03-19T09:54:26;5.05;;;3.65;;
20972;SDS011;10645;52.370;13.314;2023-03-19T09:57:19;5.30;;;3.47;;
20972;SDS011;10645;52.370;13.314;2023-03-19T09:59:46;7.38;;;3.22;;
20972;SDS011;10645;52.370;13.314;2023-03-19T10:02:30;5.30;;;3.33;;
20972;SDS011;10645;52.370;13.314;2023-03-19T10:13:17;5.78;;;3.63;;
20972;SDS011;10645;52.370;13.314;2023-03-19T10:16:00;6.05;;;3.95;;
20972;SDS011;10645;52.370;13.314;2023-03-19T10:18:27;3.65;;;3.42;;
20972;SDS011;10645;52.370;13.314;2023-03-19T10:24:23;3.97;;;3.67;;
20972;SDS011;10645;52.370;13.314;2023-03-19T10:26:57;3.15;;;2.88;;
20972;SDS011;10645;52.370;13.314;2023-03-19T10:29:26;4.22;;;3.80;;
20972;SDS011;10645;52.370;13.314;2023-03-19T10:34:47;6.28;;;5.68;;
20972;SDS011;10645;52.370;13.314;2023-03-19T10:37:19;39.30;;;19.15;;
20972;SDS011;10645;52.370;13.314;2023-03-19T10:39:48;11.18;;;7.30;;
20972;SDS011;10645;52.370;13.314;2023-03-19T10:42:28;4.55;;;3.33;;
20972;SDS011;10645;52.370;13.314;2023-03-19T10:45:27;4.35;;;4.00;;
20972;SDS011;10645;52.370;13.314;2023-03-19T10:47:55;3.20;;;2.88;;
20972;SDS011;10645;52.370;13.314;2023-03-19T10:50:30;3.45;;;3.15;;
20972;SDS011;10645;52.370;13.314;2023-03-19T10:58:24;4.35;;;3.80;;
20972;SDS011;10645;52.370;13.314;2023-03-19T11:00:55;4.75;;;4.47;;
20972;SDS011;10645;52.370;13.314;2023-03-19T11:06:03;3.25;;;2.50;;
20972;SDS011;10645;52.370;13.314;2023-03-19T11:08:43;2.42;;;2.22;;
20972;SDS011;10645;52.370;13.314;2023-03-19T11:12:04;3.90;;;2.92;;
20972;SDS011;10645;52.370;13.314;2023-03-19T11:17:03;2.72;;;2.00;;
20972;SDS011;10645;52.370;13.314;2023-03-19T11:19:41;2.92;;;2.30;;
20972;SDS011;10645;52.370;13.314;2023-03-19T11:22:14;5.90;;;3.95;;
20972;SDS011;10645;52.370;13.314;2023-03-19T11:24:48;2.30;;;2.03;;
20972;SDS011;10645;52.370;13.314;2023-03-19T11:27:17;2.42;;;2.30;;
20972;SDS011;10645;52.370;13.314;2023-03-19T11:29:44;3.60;;;2.28;;
20972;SDS011;10645;52.370;13.314;2023-03-19T11:32:17;2.45;;;1.83;;
20972;SDS011;10645;52.370;13.314;2023-03-19T11:34:55;3.17;;;2.00;;
20972;SDS011;10645;52.370;13.314;2023-03-19T11:37:46;2.95;;;2.33;;
20972;SDS011;10645;52.370;13.314;2023-03-19T11:40:31;2.00;;;1.50;;
20972;SDS011;10645;52.370;13.314;2023-03-19T11:43:23;2.40;;;2.25;;
20972;SDS011;10645;52.370;13.314;2023-03-19T11:46:06;4.25;;;1.60;;
20972;SDS011;10645;52.370;13.314;2023-03-19T11:48:38;2.67;;;2.47;;
20972;SDS011;10645;52.370;13.314;2023-03-19T11:51:25;1.98;;;1.88;;
20972;SDS011;10645;52.370;13.314;2023-03-19T11:57:08;2.97;;;2.38;;
20972;SDS011;10645;52.370;13.314;2023-03-19T11:59:48;2.10;;;1.50;;
20972;SDS011;10645;52.370;13.314;2023-03-19T12:02:58;3.13;;;2.08;;
20972;SDS011;10645;52.370;13.314;2023-03-19T12:05:32;3.60;;;1.92;;
20972;SDS011;10645;52.370;13.314;2023-03-19T12:08:16;3.00;;;2.72;;
20972;SDS011;10645;52.370;13.314;2023-03-19T12:10:51;3.28;;;2.17;;
20972;SDS011;10645;52.370;13.314;2023-03-19T12:13:28;2.85;;;2.42;;
20972;SDS011;10645;52.370;13.314;2023-03-19T12:16:11;1.50;;;1.42;;
20972;SDS011;10645;52.370;13.314;2023-03-19T12:24:39;5.05;;;2.38;;
20972;SDS011;10645;52.370;13.314;2023-03-19T12:27:20;2.70;;;2.50;;
20972;SDS011;10645;52.370;13.314;2023-03-19T12:35:46;5.47;;;2.65;;
20972;SDS011;10645;52.370;13.314;2023-03-19T12:38:19;2.22;;;2.03;;
20972;SDS011;10645;52.370;13.314;2023-03-19T12:40:59;4.25;;;2.55;;
20972;SDS011;10645;52.370;13.314;2023-03-19T12:46:08;2.35;;;2.17;;
20972;SDS011;10645;52.370;13.314;2023-03-19T12:48:51;3.13;;;2.83;;
20972;SDS011;10645;52.370;13.314;2023-03-19T12:51:24;4.47;;;3.58;;
20972;SDS011;10645;52.370;13.314;2023-03-19T12:54:00;6.72;;;3.95;;
20972;SDS011;10645;52.370;13.314;2023-03-19T12:56:41;6.20;;;2.95;;
20972;SDS011;10645;52.370;13.314;2023-03-19T12:59:25;4.22;;;3.80;;
20972;SDS011;10645;52.370;13.314;2023-03-19T13:01:58;2.42;;;2.22;;
20972;SDS011;10645;52.370;13.314;2023-03-19T13:04:44;7.32;;;3.08;;
20972;SDS011;10645;52.370;13.314;2023-03-19T13:07:21;3.40;;;2.40;;
20972;SDS011;10645;52.370;13.314;2023-03-19T13:09:57;5.30;;;2.35;;
20972;SDS011;10645;52.370;13.314;2023-03-19T13:12:29;3.13;;;2.80;;
20972;SDS011;10645;52.370;13.314;2023-03-19T13:20:16;2.53;;;1.75;;
20972;SDS011;10645;52.370;13.314;2023-03-19T13:22:50;3.28;;;2.40;;
20972;SDS011;10645;52.370;13.314;2023-03-19T13:25:22;2.33;;;1.83;;
20972;SDS011;10645;52.370;13.314;2023-03-19T13:27:56;2.03;;;1.77;;
20972;SDS011;10645;52.370;13.314;2023-03-19T13:30:22;3.10;;;2.40;;
20972;SDS011;10645;52.370;13.314;2023-03-19T13:33:00;2.88;;;2.60;;
20972;SDS011;10645;52.370;13.314;2023-03-19T13:35:44;3.35;;;3.03;;
20972;SDS011;10645;52.370;13.314;2023-03-19T13:40:54;1.58;;;1.48;;
20972;SDS011;10645;52.370;13.314;2023-03-19T13:46:04;1.75;;;1.65;;
20972;SDS011;10645;52.370;13.314;2023-03-19T13:48:51;1.77;;;1.67;;
20972;SDS011;10645;52.370;13.314;2023-03-19T13:54:18;1.70;;;1.60;;
20972;SDS011;10645;52.370;13.314;2023-03-19T13:56:54;2.53;;;2.00;;
20972;SDS011;10645;52.370;13.314;2023-03-19T13:59:34;4.25;;;1.92;;
20972;SDS011;10645;52.370;13.314;2023-03-19T14:02:02;2.88;;;2.63;;
20972;SDS011;10645;52.370;13.314;2023-03-19T14:05:07;8.07;;;2.83;;
20972;SDS011;10645;52.370;13.314;2023-03-19T14:07:43;2.17;;;1.95;;
20972;SDS011;10645;52.370;13.314;2023-03-19T14:10:24;2.58;;;2.38;;
20972;SDS011;10645;52.370;13.314;2023-03-19T14:13:04;3.88;;;2.70;;
20972;SDS011;10645;52.370;13.314;2023-03-19T14:15:33;2.55;;;2.35;;
20972;SDS011;10645;52.370;13.314;2023-03-19T14:18:03;2.47;;;1.80;;
20972;SDS011;10645;52.370;13.314;2023-03-19T14:20:32;2.63;;;2.42;;
20972;SDS011;10645;52.370;13.314;2023-03-19T14:23:11;5.80;;;2.47;;
20972;SDS011;10645;52.370;13.314;2023-03-19T14:28:30;2.38;;;1.80;;
20972;SDS011;10645;52.370;13.314;2023-03-19T14:30:57;5.93;;;3.63;;
20972;SDS011;10645;52.370;13.314;2023-03-19T14:33:25;3.58;;;2.90;;
20972;SDS011;10645;52.370;13.314;2023-03-19T14:36:01;7.15;;;3.17;;
20972;SDS011;10645;52.370;13.314;2023-03-19T14:38:36;2.72;;;2.10;;
20972;SDS011;10645;52.370;13.314;2023-03-19T14:41:05;3.92;;;2.83;;
20972;SDS011;10645;52.370;13.314;2023-03-19T14:52:31;1.67;;;1.58;;
20972;SDS011;10645;52.370;13.314;2023-03-19T14:55:08;2.70;;;2.50;;
20972;SDS011;10645;52.370;13.314;2023-03-19T14:57:37;2.58;;;2.20;;
20972;SDS011;10645;52.370;13.314;2023-03-19T15:00:04;5.00;;;3.15;;
20972;SDS011;10645;52.370;13.314;2023-03-19T15:02:40;2.78;;;2.40;;
20972;SDS011;10645;52.370;13.314;2023-03-19T15:05:20;2.70;;;2.38;;
20972;SDS011;10645;52.370;13.314;2023-03-19T15:07:52;5.63;;;3.08;;
20972;SDS011;10645;52.370;13.314;2023-03-19T15:10:22;5.88;;;3.25;;
20972;SDS011;10645;52.370;13.314;2023-03-19T15:12:55;3.33;;;3.05;;
20972;SDS011;10645;52.370;13.314;2023-03-19T15:15:33;3.72;;;3.38;;
20972;SDS011;10645;52.370;13.314;2023-03-19T15:18:08;2.17;;;1.98;;
20972;SDS011;10645;52.370;13.314;2023-03-19T15:20:36;3.40;;;2.78;;
20972;SDS011;10645;52.370;13.314;2023-03-19T15:23:12;4.68;;;3.45;;
20972;SDS011;10645;52.370;13.314;2023-03-19T15:25:53;4.03;;;2.40;;
20972;SDS011;10645;52.370;13.314;2023-03-19T15:28:25;4.70;;;2.97;;
20972;SDS011;10645;52.370;13.314;2023-03-19T15:31:00;2.67;;;2.47;;
20972;SDS011;10645;52.370;13.314;2023-03-19T15:33:32;3.80;;;2.75;;
20972;SDS011;10645;52.370;13.314;2023-03-19T15:36:02;4.72;;;2.58;;
20972;SDS011;10645;52.370;13.314;2023-03-19T15:38:39;3.47;;;3.13;;
20972;SDS011;10645;52.370;13.314;2023-03-19T15:41:13;3.75;;;3.33;;
20972;SDS011;10645;52.370;13.314;2023-03-19T15:43:40;3.58;;;2.78;;
20972;SDS011;10645;52.370;13.314;2023-03-19T15:46:09;2.83;;;2.63;;
20972;SDS011;10645;52.370;13.314;2023-03-19T15:48:49;3.42;;;2.67;;
20972;SDS011;10645;52.370;13.314;2023-03-19T15:51:23;2.80;;;2.60;;
20972;SDS011;10645;52.370;13.314;2023-03-19T15:53:51;3.60;;;3.20;;
20972;SDS011;10645;52.370;13.314;2023-03-19T15:56:18;8.35;;;3.72;;
20972;SDS011;10645;52.370;13.314;2023-03-19T15:58:46;4.75;;;4.28;;
20972;SDS011;10645;52.370;13.314;2023-03-19T16:01:15;4.68;;;2.83;;
20972;SDS011;10645;52.370;13.314;2023-03-19T16:03:50;3.17;;;2.95;;
20972;SDS011;10645;52.370;13.314;2023-03-19T16:06:26;4.57;;;4.18;;
20972;SDS011;10645;52.370;13.314;2023-03-19T16:11:42;6.05;;;2.88;;
20972;SDS011;10645;52.370;13.314;2023-03-19T16:14:20;6.88;;;3.83;;